createdAt,value
2019-02-05T00:00:43.684Z,6.53
2019-02-05T00:03:14.738Z,6.40
2019-02-05T00:05:43.836Z,7.93
2019-02-05T00:08:12.779Z,6.40
2019-02-05T00:10:41.746Z,6.80
2019-02-05T00:13:10.771Z,6.77
2019-02-05T00:15:39.890Z,6.00
2019-02-05T00:18:08.942Z,6.20
2019-02-05T00:20:37.900Z,6.17
2019-02-05T00:23:06.868Z,6.40
2019-02-05T00:25:35.692Z,6.50
2019-02-05T00:28:04.640Z,6.33
2019-02-05T00:30:33.611Z,6.33
2019-02-05T00:33:02.602Z,7.58
2019-02-05T00:35:31.496Z,6.20
2019-02-05T00:38:00.412Z,5.60
2019-02-05T00:40:29.354Z,6.15
2019-02-05T00:42:58.429Z,5.75
2019-02-05T00:45:27.394Z,6.17
2019-02-05T00:47:56.394Z,5.55
2019-02-05T00:50:25.403Z,6.00
2019-02-05T00:52:54.383Z,6.27
2019-02-05T00:55:23.350Z,5.70
2019-02-05T00:57:52.288Z,6.05
2019-02-05T01:00:23.888Z,5.80
2019-02-05T01:02:53.207Z,6.70
2019-02-05T01:05:22.410Z,6.17
2019-02-05T01:07:51.482Z,5.67
2019-02-05T01:10:21.712Z,5.75
2019-02-05T01:12:50.802Z,6.15
2019-02-05T01:15:20.263Z,6.20
2019-02-05T01:17:49.507Z,5.92
2019-02-05T01:20:18.705Z,5.67
2019-02-05T01:22:47.844Z,5.90
2019-02-05T01:25:18.056Z,5.72
2019-02-05T01:27:47.563Z,6.58
2019-02-05T01:30:21.614Z,5.30
2019-02-05T01:32:50.847Z,5.08
2019-02-05T01:35:20.041Z,5.42
2019-02-05T01:37:49.195Z,5.42
2019-02-05T01:40:19.567Z,5.25
2019-02-05T01:42:48.673Z,6.03
2019-02-05T01:45:18.831Z,5.40
2019-02-05T01:47:47.846Z,6.05
2019-02-05T01:50:19.419Z,5.50
2019-02-05T01:52:48.371Z,5.37
2019-02-05T01:55:17.352Z,5.47
2019-02-05T01:57:46.483Z,6.05
2019-02-05T02:00:18.380Z,5.90
2019-02-05T02:02:47.300Z,5.70
2019-02-05T02:05:16.368Z,4.73
2019-02-05T02:07:45.293Z,5.78
2019-02-05T02:10:17.287Z,5.72
2019-02-05T02:12:46.591Z,5.80
2019-02-05T02:15:15.772Z,5.60
2019-02-05T02:17:44.859Z,6.03
2019-02-05T02:20:15.721Z,5.75
2019-02-05T02:22:44.928Z,4.92
2019-02-05T02:25:14.483Z,5.62
2019-02-05T02:27:43.533Z,5.30
2019-02-05T02:30:16.179Z,5.58
2019-02-05T02:32:45.244Z,5.45
2019-02-05T02:35:14.416Z,5.40
2019-02-05T02:37:43.451Z,5.55
2019-02-05T02:40:12.738Z,5.30
2019-02-05T02:42:41.729Z,4.90
2019-02-05T02:45:11.953Z,5.73
2019-02-05T02:47:41.209Z,5.83
2019-02-05T02:50:11.922Z,5.58
2019-02-05T02:52:40.795Z,5.10
2019-02-05T02:55:10.249Z,5.28
2019-02-05T02:57:39.310Z,5.20
2019-02-05T03:00:11.104Z,5.00
2019-02-05T03:02:40.389Z,5.10
2019-02-05T03:05:11.721Z,5.08
2019-02-05T03:07:40.732Z,5.33
2019-02-05T03:10:19.076Z,5.15
2019-02-05T03:12:48.143Z,4.80
2019-02-05T03:15:17.494Z,5.17
2019-02-05T03:17:46.565Z,4.87
2019-02-05T03:20:15.996Z,5.28
2019-02-05T03:22:45.607Z,5.15
2019-02-05T03:25:16.860Z,4.92
2019-02-05T03:27:45.907Z,5.50
2019-02-05T03:30:19.755Z,4.90
2019-02-05T03:32:48.811Z,5.10
2019-02-05T03:35:17.910Z,5.50
2019-02-05T03:37:46.827Z,5.07
2019-02-05T03:40:57.448Z,4.93
2019-02-05T03:43:26.288Z,4.35
2019-02-05T03:45:58.198Z,5.75
2019-02-05T03:48:27.723Z,4.30
2019-02-05T03:51:06.218Z,4.87
2019-02-05T03:53:38.502Z,4.80
2019-02-05T03:56:21.470Z,4.63
2019-02-05T03:59:19.965Z,4.67
2019-02-05T04:02:42.539Z,5.00
2019-02-05T04:05:40.518Z,5.20
2019-02-05T04:08:57.154Z,4.30
2019-02-05T04:12:10.470Z,4.67
2019-02-05T04:14:56.929Z,4.60
2019-02-05T04:17:42.372Z,4.67
2019-02-05T04:21:13.339Z,4.43
2019-02-05T04:24:05.838Z,4.65
2019-02-05T04:27:04.731Z,5.30
2019-02-05T04:29:43.362Z,4.20
2019-02-05T04:32:47.264Z,4.13
2019-02-05T04:35:48.672Z,6.13
2019-02-05T04:38:42.252Z,4.70
2019-02-05T04:41:28.810Z,5.70
2019-02-05T04:44:22.732Z,5.08
2019-02-05T04:47:01.167Z,5.15
2019-02-05T04:50:23.256Z,5.10
2019-02-05T04:53:22.739Z,4.95
2019-02-05T04:56:27.799Z,5.80
2019-02-05T04:59:45.438Z,5.70
2019-02-05T05:03:16.597Z,5.90
2019-02-05T05:06:27.129Z,5.08
2019-02-05T05:09:23.502Z,6.53
2019-02-05T05:11:52.462Z,5.85
2019-02-05T05:14:21.433Z,5.72
2019-02-05T05:16:50.338Z,6.70
2019-02-05T05:19:19.689Z,5.60
2019-02-05T05:21:48.783Z,5.40
2019-02-05T05:24:18.136Z,5.63
2019-02-05T05:26:47.312Z,5.45
2019-02-05T05:29:16.402Z,6.13
2019-02-05T05:31:45.423Z,5.72
2019-02-05T05:34:14.506Z,5.30
2019-02-05T05:36:51.140Z,5.53
2019-02-05T05:39:20.608Z,5.50
2019-02-05T05:41:49.654Z,5.17
2019-02-05T05:44:18.478Z,4.62
2019-02-05T05:46:47.492Z,5.63
2019-02-05T05:49:16.488Z,6.43
2019-02-05T05:51:45.611Z,5.75
2019-02-05T05:54:14.597Z,5.40
2019-02-05T05:56:44.596Z,5.70
2019-02-05T05:59:13.547Z,5.17
2019-02-05T06:01:42.563Z,6.30
2019-02-05T06:04:11.542Z,5.43
2019-02-05T06:06:40.872Z,6.10
2019-02-05T06:09:10.103Z,6.03
2019-02-05T06:11:39.170Z,5.50
2019-02-05T06:14:08.259Z,6.07
2019-02-05T06:16:37.239Z,5.70
2019-02-05T06:19:06.171Z,5.37
2019-02-05T06:21:35.076Z,5.70
2019-02-05T06:24:04.865Z,5.07
2019-02-05T06:26:33.945Z,5.20
2019-02-05T06:29:02.973Z,5.40
2019-02-05T06:31:31.901Z,5.20
2019-02-05T06:34:00.806Z,5.50
2019-02-05T06:36:29.787Z,5.67
2019-02-05T06:38:58.817Z,5.00
2019-02-05T06:41:27.790Z,5.50
2019-02-05T06:43:57.956Z,5.17
2019-02-05T06:46:26.958Z,5.40
2019-02-05T06:48:55.961Z,5.60
2019-02-05T06:51:25.007Z,5.13
2019-02-05T06:53:54.318Z,5.40
2019-02-05T06:56:23.458Z,5.63
2019-02-05T06:58:52.369Z,5.50
2019-02-05T07:01:21.399Z,5.27
2019-02-05T07:03:50.451Z,5.77
2019-02-05T07:06:19.401Z,5.63
2019-02-05T07:08:48.437Z,6.00
2019-02-05T07:11:17.369Z,5.23
2019-02-05T07:13:46.365Z,5.37
2019-02-05T07:16:15.383Z,5.33
2019-02-05T07:18:44.465Z,5.15
2019-02-05T07:21:13.468Z,5.40
2019-02-05T07:23:42.346Z,5.83
2019-02-05T07:26:11.485Z,6.33
2019-02-05T07:28:40.650Z,6.30
2019-02-05T07:31:09.725Z,6.77
2019-02-05T07:33:38.736Z,6.50
2019-02-05T07:36:07.828Z,6.17
2019-02-05T07:38:36.861Z,6.47
2019-02-05T07:41:05.821Z,6.57
2019-02-05T07:43:34.733Z,6.33
2019-02-05T07:46:03.930Z,7.00
2019-02-05T07:48:33.768Z,7.30
2019-02-05T07:51:02.724Z,6.93
2019-02-05T07:53:33.279Z,5.93
2019-02-05T07:56:02.301Z,7.37
2019-02-05T07:58:31.199Z,6.47
2019-02-05T08:01:00.198Z,6.43
2019-02-05T08:03:29.181Z,6.67
2019-02-05T08:05:58.211Z,7.03
2019-02-05T08:08:27.107Z,6.60
2019-02-05T08:10:56.105Z,7.27
2019-02-05T08:13:25.508Z,7.37
2019-02-05T08:16:23.071Z,6.67
2019-02-05T08:19:24.390Z,7.70
2019-02-05T08:25:43.280Z,8.10
2019-02-05T08:28:12.478Z,7.50
2019-02-05T08:30:44.064Z,7.33
2019-02-05T08:33:13.146Z,7.57
2019-02-05T08:35:42.360Z,7.60
2019-02-05T08:38:11.463Z,7.33
2019-02-05T08:40:40.542Z,7.90
2019-02-05T08:43:09.503Z,8.77
2019-02-05T08:45:38.571Z,7.77
2019-02-05T08:48:08.450Z,8.00
2019-02-05T08:50:37.899Z,7.20
2019-02-05T08:53:07.080Z,8.20
2019-02-05T08:55:36.144Z,8.90
2019-02-05T08:58:07.358Z,7.97
2019-02-05T09:00:37.656Z,8.47
2019-02-05T09:03:09.512Z,9.20
2019-02-05T09:05:38.818Z,8.60
2019-02-05T09:08:08.044Z,8.00
2019-02-05T09:10:37.403Z,7.70
2019-02-05T09:13:06.417Z,8.40
2019-02-05T09:15:35.336Z,9.20
2019-02-05T09:18:04.670Z,8.03
2019-02-05T09:20:33.691Z,8.63
2019-02-05T09:23:02.784Z,8.60
2019-02-05T09:25:31.844Z,7.83
2019-02-05T09:28:00.884Z,8.97
2019-02-05T09:30:31.782Z,8.03
2019-02-05T09:33:02.922Z,8.50
2019-02-05T09:35:34.586Z,8.30
2019-02-05T09:38:03.742Z,9.07
2019-02-05T09:40:33.490Z,9.00
2019-02-05T09:43:02.581Z,8.47
2019-02-05T09:45:32.726Z,8.73
2019-02-05T09:48:03.991Z,8.47
2019-02-05T09:50:44.262Z,8.50
2019-02-05T09:53:03.875Z,8.33
2019-02-05T09:55:35.860Z,8.93
2019-02-05T09:58:03.384Z,9.50
2019-02-05T10:00:34.854Z,7.50
2019-02-05T10:03:04.365Z,8.60
2019-02-05T10:05:33.597Z,9.03
2019-02-05T10:08:02.586Z,7.93
2019-02-05T10:10:31.842Z,9.63
2019-02-05T10:13:01.050Z,8.43
2019-02-05T10:15:32.220Z,8.90
2019-02-05T10:18:01.582Z,9.20
2019-02-05T10:20:30.656Z,9.80
2019-02-05T10:23:02.356Z,8.70
2019-02-05T10:25:31.483Z,9.07
2019-02-05T10:28:00.337Z,9.13
2019-02-05T10:30:31.596Z,10.13
2019-02-05T10:33:02.362Z,9.50
2019-02-05T10:35:31.366Z,10.67
2019-02-05T10:38:00.535Z,9.20
2019-02-05T10:40:29.744Z,9.60
2019-02-05T10:42:58.865Z,9.50
2019-02-05T10:45:28.579Z,8.97
2019-02-05T10:47:57.726Z,9.47
2019-02-05T10:50:27.038Z,9.10
2019-02-05T10:52:56.014Z,9.43
2019-02-05T10:55:25.184Z,10.00
2019-02-05T10:57:54.312Z,10.30
2019-02-05T11:00:26.052Z,10.17
2019-02-05T11:02:55.731Z,9.73
2019-02-05T11:05:26.889Z,9.40
2019-02-05T11:07:55.829Z,9.50
2019-02-05T11:10:24.808Z,9.80
2019-02-05T11:12:53.906Z,9.97
2019-02-05T11:15:25.038Z,9.77
2019-02-05T11:17:54.093Z,10.40
2019-02-05T11:20:24.403Z,10.00
2019-02-05T11:22:53.615Z,9.93
2019-02-05T11:25:22.783Z,9.17
2019-02-05T11:27:51.845Z,10.63
2019-02-05T11:30:35.179Z,8.83
2019-02-05T11:33:04.229Z,8.27
2019-02-05T11:35:33.463Z,9.20
2019-02-05T11:38:02.562Z,10.00
2019-02-05T11:40:32.954Z,10.13
2019-02-05T11:43:02.075Z,10.40
2019-02-05T11:45:31.423Z,10.27
2019-02-05T11:48:00.999Z,10.60
2019-02-05T11:50:30.021Z,9.87
2019-02-05T11:52:59.090Z,9.70
2019-02-05T11:55:29.193Z,10.00
2019-02-05T11:57:58.263Z,10.33
2019-02-05T12:00:44.707Z,9.63
2019-02-05T12:03:14.451Z,9.77
2019-02-05T12:05:43.505Z,10.10
2019-02-05T12:08:12.377Z,9.93
2019-02-05T12:10:41.397Z,9.73
2019-02-05T12:13:10.322Z,10.73
2019-02-05T12:15:39.350Z,10.90
2019-02-05T12:18:08.451Z,10.40
2019-02-05T12:20:37.549Z,10.43
2019-02-05T12:23:06.768Z,10.30
2019-02-05T12:25:35.953Z,10.07
2019-02-05T12:28:05.799Z,10.10
2019-02-05T12:30:44.254Z,10.07
2019-02-05T12:33:06.836Z,9.97
2019-02-05T12:35:35.989Z,10.30
2019-02-05T12:38:06.015Z,11.50
2019-02-05T12:40:35.281Z,10.97
2019-02-05T12:43:04.737Z,10.97
2019-02-05T12:45:33.855Z,10.57
2019-02-05T12:48:02.838Z,10.80
2019-02-05T12:50:33.339Z,10.90
2019-02-05T12:53:02.711Z,9.90
2019-02-05T12:55:31.705Z,10.80
2019-02-05T12:58:00.996Z,10.47
2019-02-05T13:00:38.610Z,9.93
2019-02-05T13:03:08.509Z,10.10
2019-02-05T13:05:38.026Z,9.73
2019-02-05T13:08:07.416Z,10.00
2019-02-05T13:10:38.817Z,10.50
2019-02-05T13:13:08.642Z,11.20
2019-02-05T13:15:37.690Z,11.13
2019-02-05T13:18:07.566Z,9.90
2019-02-05T13:20:37.078Z,11.17
2019-02-05T13:23:07.075Z,10.23
2019-02-05T13:25:36.345Z,10.90
2019-02-05T13:28:07.107Z,10.73
2019-02-05T13:30:36.261Z,11.20
2019-02-05T13:33:06.326Z,11.07
2019-02-05T13:35:35.574Z,10.37
2019-02-05T13:38:05.940Z,11.83
2019-02-05T13:40:34.942Z,10.80
2019-02-05T13:43:04.510Z,11.27
2019-02-05T13:45:34.428Z,10.60
2019-02-05T13:48:04.162Z,10.97
2019-02-05T13:50:33.855Z,10.60
2019-02-05T13:53:03.335Z,11.00
2019-02-05T13:55:34.458Z,11.17
2019-02-05T13:58:03.741Z,11.67
2019-02-05T14:00:34.945Z,11.90
2019-02-05T14:03:04.366Z,11.70
2019-02-05T14:05:33.273Z,11.20
2019-02-05T14:08:02.271Z,11.17
2019-02-05T14:10:32.097Z,11.53
2019-02-05T14:13:01.034Z,11.43
2019-02-05T14:15:35.006Z,11.33
2019-02-05T14:18:04.650Z,11.07
2019-02-05T14:20:33.537Z,11.40
2019-02-05T14:23:02.493Z,11.43
2019-02-05T14:25:31.513Z,11.73
2019-02-05T14:28:00.569Z,11.67
2019-02-05T14:30:34.812Z,11.43
2019-02-05T14:33:04.249Z,11.20
2019-02-05T14:35:33.249Z,11.10
2019-02-05T14:38:02.293Z,12.63
2019-02-05T14:40:31.267Z,11.20
2019-02-05T14:43:00.190Z,11.90
2019-02-05T14:45:29.224Z,11.50
2019-02-05T14:47:58.441Z,11.30
2019-02-05T14:50:29.100Z,12.87
2019-02-05T14:52:58.976Z,12.70
2019-02-05T14:55:28.052Z,12.83
2019-02-05T14:57:57.128Z,12.47
2019-02-05T15:00:31.032Z,12.00
2019-02-05T15:03:02.209Z,13.27
2019-02-05T15:05:30.808Z,12.73
2019-02-05T15:07:59.733Z,12.37
2019-02-05T15:10:28.677Z,12.43
2019-02-05T15:12:57.704Z,11.43
2019-02-05T15:15:26.771Z,11.90
2019-02-05T15:17:55.699Z,12.80
2019-02-05T15:20:44.991Z,12.77
2019-02-05T15:23:14.198Z,12.80
2019-02-05T15:25:43.398Z,11.57
2019-02-05T15:28:12.712Z,12.47
2019-02-05T15:30:42.808Z,11.90
2019-02-05T15:33:28.790Z,11.67
2019-02-05T15:36:00.524Z,13.37
2019-02-05T15:38:29.906Z,11.33
2019-02-05T15:40:59.077Z,12.40
2019-02-05T15:43:28.014Z,11.23
2019-02-05T15:45:57.009Z,13.57
2019-02-05T15:48:26.144Z,12.00
2019-02-05T15:50:55.211Z,12.30
2019-02-05T15:53:24.592Z,12.70
2019-02-05T15:55:53.528Z,12.20
2019-02-05T15:58:22.454Z,12.80
2019-02-05T16:00:51.432Z,12.17
2019-02-05T16:03:20.544Z,12.70
2019-02-05T16:05:49.609Z,11.80
2019-02-05T16:08:18.744Z,13.03
2019-02-05T16:10:47.915Z,12.50
2019-02-05T16:13:16.937Z,12.57
2019-02-05T16:15:45.956Z,11.87
2019-02-05T16:18:14.892Z,11.70
2019-02-05T16:20:43.823Z,11.93
2019-02-05T16:23:12.765Z,12.30
2019-02-05T16:25:41.797Z,11.77
2019-02-05T16:28:10.853Z,12.57
2019-02-05T16:30:39.850Z,12.90
2019-02-05T16:33:08.886Z,13.63
2019-02-05T16:35:38.001Z,13.60
2019-02-05T16:38:07.126Z,13.20
2019-02-05T16:40:36.351Z,12.93
2019-02-05T16:43:05.690Z,13.57
2019-02-05T16:45:34.683Z,13.50
2019-02-05T16:48:03.631Z,13.80
2019-02-05T16:50:34.939Z,13.20
2019-02-05T16:53:04.855Z,12.63
2019-02-05T16:55:34.241Z,13.60
2019-02-05T16:58:03.437Z,15.67
2019-02-05T17:00:33.393Z,23.20
2019-02-05T17:03:02.495Z,60.57
2019-02-05T17:05:33.509Z,21.67
2019-02-05T17:08:02.531Z,13.63
2019-02-05T17:10:31.748Z,13.97
2019-02-05T17:13:00.798Z,12.10
2019-02-05T17:15:29.905Z,13.20
2019-02-05T17:17:58.934Z,11.90
2019-02-05T17:20:28.962Z,13.07
2019-02-05T17:23:00.479Z,12.10
2019-02-05T17:25:29.118Z,12.90
2019-02-05T17:27:59.183Z,11.83
2019-02-05T17:30:30.643Z,11.90
2019-02-05T17:32:59.573Z,12.33
2019-02-05T17:35:28.554Z,11.90
2019-02-05T17:37:57.614Z,11.27
2019-02-05T17:40:26.650Z,11.90
2019-02-05T17:42:55.559Z,11.43
2019-02-05T17:45:32.817Z,13.27
2019-02-05T17:48:03.695Z,11.03
2019-02-05T17:50:32.619Z,12.30
2019-02-05T17:53:01.857Z,12.83
2019-02-05T17:55:30.959Z,10.90
2019-02-05T17:57:59.950Z,11.57
2019-02-05T18:00:43.291Z,12.40
2019-02-05T18:03:12.276Z,12.40
2019-02-05T18:05:41.447Z,11.40
2019-02-05T18:08:10.460Z,13.37
2019-02-05T18:10:41.982Z,11.90
2019-02-05T18:13:10.280Z,11.10
2019-02-05T18:15:39.373Z,11.80
2019-02-05T18:18:08.331Z,11.47
2019-02-05T18:20:37.600Z,10.93
2019-02-05T18:23:06.719Z,11.47
2019-02-05T18:25:35.805Z,11.30
2019-02-05T18:28:05.360Z,10.83
2019-02-05T18:30:34.532Z,10.80
2019-02-05T18:33:05.868Z,10.60
2019-02-05T18:35:34.265Z,10.70
2019-02-05T18:38:03.259Z,10.40
2019-02-05T18:40:32.250Z,11.17
2019-02-05T18:43:01.244Z,10.33
2019-02-05T18:45:30.166Z,10.20
2019-02-05T18:47:59.070Z,10.03
2019-02-05T18:50:28.546Z,10.50
2019-02-05T18:52:57.649Z,11.43
2019-02-05T18:55:27.486Z,11.07
2019-02-05T18:58:08.240Z,10.33
2019-02-05T19:00:29.455Z,10.93
2019-02-05T19:02:58.629Z,10.93
2019-02-05T19:05:28.591Z,12.93
2019-02-05T19:07:57.610Z,10.80
2019-02-05T19:10:27.578Z,11.23
2019-02-05T19:12:56.644Z,12.67
2019-02-05T19:15:27.534Z,12.27
2019-02-05T19:17:56.488Z,12.37
2019-02-05T19:20:27.272Z,13.93
2019-02-05T19:22:56.283Z,12.90
2019-02-05T19:25:32.571Z,12.93
2019-02-05T19:28:01.600Z,11.33
2019-02-05T19:30:31.810Z,12.83
2019-02-05T19:33:01.084Z,13.30
2019-02-05T19:35:30.284Z,12.80
2019-02-05T19:37:59.404Z,12.60
2019-02-05T19:40:28.423Z,13.07
2019-02-05T19:42:57.593Z,11.83
2019-02-05T19:45:48.639Z,12.77
2019-02-05T19:48:26.283Z,13.10
2019-02-05T19:50:55.657Z,13.33
2019-02-05T19:53:26.042Z,13.93
2019-02-05T19:55:55.453Z,13.07
2019-02-05T19:58:24.444Z,11.67
2019-02-05T20:00:53.845Z,12.40
2019-02-05T20:03:22.730Z,14.03
2019-02-05T20:05:51.903Z,12.00
2019-02-05T20:08:20.948Z,12.40
2019-02-05T20:10:50.079Z,12.80
2019-02-05T20:13:19.045Z,12.17
2019-02-05T20:15:48.039Z,13.23
2019-02-05T20:18:18.331Z,11.27
2019-02-05T20:20:47.288Z,11.90
2019-02-05T20:23:16.279Z,13.50
2019-02-05T20:25:49.223Z,12.10
2019-02-05T20:28:18.357Z,12.93
2019-02-05T20:30:47.350Z,12.80
2019-02-05T20:33:16.476Z,13.80
2019-02-05T20:35:45.379Z,11.50
2019-02-05T20:38:26.133Z,12.23
2019-02-05T20:40:55.551Z,10.93
2019-02-05T20:43:24.649Z,12.90
2019-02-05T20:45:54.087Z,12.67
2019-02-05T20:48:29.958Z,12.03
2019-02-05T20:51:01.033Z,11.90
2019-02-05T20:53:29.612Z,11.80
2019-02-05T20:56:04.005Z,13.60
2019-02-05T20:58:32.898Z,11.77
2019-02-05T21:01:01.979Z,13.87
2019-02-05T21:03:30.940Z,12.33
2019-02-05T21:06:00.043Z,13.85
2019-02-05T21:08:28.961Z,13.50
2019-02-05T21:10:57.907Z,13.17
2019-02-05T21:13:26.818Z,12.80
2019-02-05T21:15:55.748Z,12.17
2019-02-05T21:18:24.897Z,13.73
2019-02-05T21:20:54.035Z,12.83
2019-02-05T21:23:23.031Z,12.00
2019-02-05T21:25:51.973Z,13.10
2019-02-05T21:28:20.935Z,12.50
2019-02-05T21:30:49.904Z,12.20
2019-02-05T21:33:19.153Z,13.57
2019-02-05T21:35:48.225Z,12.83
2019-02-05T21:38:17.219Z,12.17
2019-02-05T21:40:46.123Z,12.27
2019-02-05T21:43:15.755Z,13.70
2019-02-05T21:45:44.635Z,13.53
2019-02-05T21:48:13.613Z,13.20
2019-02-05T21:50:42.822Z,12.63
2019-02-05T21:53:11.849Z,12.17
2019-02-05T21:55:40.763Z,13.50
2019-02-05T21:58:12.443Z,13.17
2019-02-05T22:00:40.558Z,12.47
2019-02-05T22:03:09.449Z,12.10
2019-02-05T22:05:38.512Z,12.27
2019-02-05T22:08:08.824Z,13.03
2019-02-05T22:10:38.047Z,11.67
2019-02-05T22:13:07.365Z,12.60
2019-02-05T22:15:36.384Z,12.27
2019-02-05T22:18:05.547Z,13.93
2019-02-05T22:20:34.516Z,13.00
2019-02-05T22:23:03.567Z,12.77
2019-02-05T22:25:32.733Z,12.80
2019-02-05T22:28:02.852Z,13.03
2019-02-05T22:30:33.097Z,14.30
2019-02-05T22:33:02.308Z,12.60
2019-02-05T22:35:31.467Z,13.13
2019-02-05T22:38:00.570Z,12.07
2019-02-05T22:40:29.554Z,10.90
2019-02-05T22:42:58.698Z,12.20
2019-02-05T22:45:29.373Z,13.07
2019-02-05T22:47:58.484Z,13.87
2019-02-05T22:50:29.232Z,12.97
2019-02-05T22:52:58.488Z,12.50
2019-02-05T22:55:27.581Z,12.07
2019-02-05T22:57:56.680Z,12.23
2019-02-05T23:00:45.524Z,12.17
2019-02-05T23:03:14.756Z,12.07
2019-02-05T23:06:06.132Z,11.83
2019-02-05T23:08:35.022Z,12.60
2019-02-05T23:11:19.884Z,11.90
2019-02-05T23:13:48.843Z,11.23
2019-02-05T23:16:17.710Z,12.70
2019-02-05T23:18:46.623Z,12.10
2019-02-05T23:21:15.620Z,11.70
2019-02-05T23:23:44.514Z,10.47
2019-02-05T23:26:15.181Z,12.10
2019-02-05T23:28:44.284Z,11.07
2019-02-05T23:31:13.281Z,12.00
2019-02-05T23:33:44.609Z,10.77
2019-02-05T23:36:12.953Z,11.73
2019-02-05T23:38:42.437Z,11.63
2019-02-05T23:41:11.607Z,11.50
2019-02-05T23:43:40.623Z,11.47
2019-02-05T23:46:09.612Z,11.10
2019-02-05T23:48:38.568Z,11.47
2019-02-05T23:51:07.610Z,11.27
2019-02-05T23:53:36.570Z,11.37
2019-02-05T23:56:05.548Z,11.67
2019-02-05T23:58:34.494Z,11.33
